createdAt,value
2019-01-05T00:06:49.219Z,19.10
2019-01-05T00:22:00.735Z,19.20
2019-01-05T01:21:58.214Z,19.20
2019-01-05T01:55:23.547Z,19.30
2019-01-05T02:29:59.966Z,19.30
2019-01-05T02:48:47.878Z,19.40
2019-01-05T03:04:00.652Z,19.40
2019-01-05T03:19:36.566Z,19.40
2019-01-05T03:35:09.278Z,19.40
2019-01-05T04:06:17.264Z,19.50
2019-01-05T04:21:41.078Z,19.40
2019-01-05T04:36:54.139Z,19.40
2019-01-05T04:52:21.715Z,19.40
2019-01-05T05:07:53.102Z,19.40
2019-01-05T05:23:24.539Z,19.40
2019-01-05T05:59:12.965Z,19.30
2019-01-05T06:32:01.610Z,19.30
2019-01-05T06:48:29.416Z,19.20
2019-01-05T07:06:49.687Z,19.60
2019-01-05T07:22:11.330Z,19.30
2019-01-05T07:37:37.727Z,19.20
2019-01-05T07:53:14.606Z,19.20
2019-01-05T08:09:03.611Z,19.10
2019-01-05T08:24:37.130Z,19.10
2019-01-05T08:40:29.278Z,19.10
2019-01-05T08:56:14.891Z,19.10
2019-01-05T09:12:02.171Z,19.00
2019-01-05T09:27:48.445Z,19.00
2019-01-05T09:43:32.638Z,19.00
2019-01-05T09:58:54.343Z,18.90
2019-01-05T10:14:51.138Z,18.90
2019-01-05T10:30:45.977Z,18.90
2019-01-05T10:46:22.891Z,19.00
2019-01-05T11:02:06.940Z,19.00
2019-01-05T11:17:48.187Z,19.10
2019-01-05T11:33:26.556Z,19.10
2019-01-05T11:48:44.921Z,19.20
2019-01-05T12:04:17.010Z,19.20
2019-01-05T12:19:35.373Z,19.20
2019-01-05T12:35:12.360Z,19.30
2019-01-05T13:06:27.130Z,19.30
2019-01-05T13:22:11.530Z,19.40
2019-01-05T13:38:11.251Z,19.40
2019-01-05T13:53:20.972Z,19.40
2019-01-05T14:08:30.840Z,19.30
2019-01-05T14:23:49.138Z,19.30
2019-01-05T14:39:12.250Z,19.30
2019-01-05T14:54:34.000Z,19.20
2019-01-05T15:09:40.662Z,19.20
2019-01-05T15:25:03.580Z,19.10
2019-01-05T15:40:27.611Z,19.10
2019-01-05T15:55:34.415Z,19.10
2019-01-05T16:10:41.338Z,19.00
2019-01-05T16:25:48.292Z,19.00
2019-01-05T16:40:55.201Z,19.00
2019-01-05T16:56:14.041Z,19.00
2019-01-05T17:11:20.858Z,19.00
2019-01-05T17:26:31.809Z,19.00
2019-01-05T17:41:55.219Z,19.10
2019-01-05T17:57:18.514Z,19.10
2019-01-05T18:12:31.412Z,19.10
2019-01-05T18:27:54.614Z,19.10
2019-01-05T18:43:01.514Z,19.10
2019-01-05T18:58:14.416Z,19.10
2019-01-05T19:13:37.814Z,19.10
2019-01-05T19:28:44.959Z,19.10
2019-01-05T19:44:03.971Z,19.10
2019-01-05T19:59:26.973Z,19.10
2019-01-05T20:14:36.693Z,19.10
2019-01-05T20:29:52.531Z,19.10
2019-01-05T20:44:59.413Z,19.20
2019-01-05T21:00:12.057Z,19.20
2019-01-05T21:15:20.227Z,19.20
2019-01-05T21:30:33.456Z,19.20
2019-01-05T21:45:49.397Z,19.30
2019-01-05T22:00:56.411Z,19.30
2019-01-05T22:16:03.271Z,19.30
2019-01-05T22:31:25.294Z,19.30
2019-01-05T22:46:37.971Z,19.30
2019-01-05T23:01:47.610Z,19.30
2019-01-05T23:16:54.410Z,19.40
2019-01-05T23:32:17.651Z,19.40
2019-01-05T23:47:40.449Z,19.40
